createdAt,value
2022-10-02T00:00:55.014Z,99858.56
2022-10-02T00:03:25.865Z,99856.72
2022-10-02T00:05:59.356Z,99850.75
2022-10-02T00:08:30.578Z,99846.22
2022-10-02T00:11:01.542Z,99844.38
2022-10-02T00:13:35.496Z,99845.41
2022-10-02T00:16:04.123Z,99843.53
2022-10-02T00:18:36.059Z,99844.56
2022-10-02T00:21:05.805Z,99845.41
2022-10-02T00:23:36.450Z,99843.53
2022-10-02T00:26:06.642Z,99851.56
2022-10-02T00:28:41.299Z,99850.75
2022-10-02T00:31:24.076Z,99851.72
2022-10-02T00:34:00.724Z,99850.75
2022-10-02T00:36:36.394Z,99849.91
2022-10-02T00:39:07.594Z,99841.91
2022-10-02T00:42:00.030Z,99849.91
2022-10-02T00:44:42.183Z,99842.06
2022-10-02T00:47:16.681Z,99856.88
2022-10-02T00:49:55.204Z,99852.56
2022-10-02T00:52:41.449Z,99847.41
2022-10-02T00:55:22.002Z,99847.41
2022-10-02T00:57:56.519Z,99840.88
2022-10-02T01:00:24.430Z,99832.06
2022-10-02T01:03:12.966Z,99832.25
2022-10-02T01:05:42.561Z,99836.75
2022-10-02T01:08:10.529Z,99840.25
2022-10-02T01:10:39.349Z,99823.56
2022-10-02T01:13:08.138Z,99824.41
2022-10-02T01:15:37.530Z,99812.91
2022-10-02T01:18:05.674Z,99824.41
2022-10-02T01:20:36.613Z,99822.94
2022-10-02T01:23:12.048Z,99826.44
2022-10-02T01:25:41.528Z,99818.41
2022-10-02T01:28:10.745Z,99811.25
2022-10-02T01:30:40.723Z,99795.25
2022-10-02T01:33:08.892Z,99795.25
2022-10-02T01:35:38.385Z,99799.75
2022-10-02T01:38:08.403Z,99794.41
2022-10-02T01:40:37.369Z,99795.25
2022-10-02T01:43:09.451Z,99796.09
2022-10-02T01:45:45.315Z,99792.56
2022-10-02T01:48:15.037Z,99782.94
2022-10-02T01:50:49.455Z,99788.25
2022-10-02T01:53:20.188Z,99777.59
2022-10-02T01:55:53.579Z,99779.22
2022-10-02T01:58:26.008Z,99766.91
2022-10-02T02:01:02.627Z,99759.91
2022-10-02T02:03:38.214Z,99754.19
2022-10-02T02:06:10.614Z,99753.84
2022-10-02T02:08:44.228Z,99749.16
2022-10-02T02:11:14.770Z,99751.81
2022-10-02T02:13:46.262Z,99748.13
2022-10-02T02:16:19.157Z,99740.13
2022-10-02T02:18:50.399Z,99732.13
2022-10-02T02:21:22.245Z,99728.44
2022-10-02T02:23:51.249Z,99717.75
2022-10-02T02:26:20.496Z,99706.91
2022-10-02T02:28:52.297Z,99706.06
2022-10-02T02:31:22.488Z,99703.38
2022-10-02T02:33:52.449Z,99691.06
2022-10-02T02:36:22.641Z,99692.09
2022-10-02T02:38:53.237Z,99695.59
2022-10-02T02:41:25.703Z,99690.25
2022-10-02T02:43:57.166Z,99677.91
2022-10-02T02:46:28.270Z,99671.75
2022-10-02T02:48:58.277Z,99663.75
2022-10-02T02:51:28.696Z,99657.56
2022-10-02T02:54:00.166Z,99655.75
2022-10-02T02:56:29.584Z,99652.44
2022-10-02T02:59:01.037Z,99652.06
2022-10-02T03:01:29.139Z,99653.31
2022-10-02T03:03:57.100Z,99651.69
2022-10-02T03:06:27.947Z,99654.72
2022-10-02T03:08:56.108Z,99650.41
2022-10-02T03:11:28.251Z,99646.06
2022-10-02T03:13:59.526Z,99645.06
2022-10-02T03:16:35.281Z,99653.88
2022-10-02T03:19:10.380Z,99652.25
2022-10-02T03:21:41.209Z,99647.75
2022-10-02T03:24:12.807Z,99644.66
2022-10-02T03:26:42.355Z,99640.63
2022-10-02T03:29:15.345Z,99623.53
2022-10-02T03:31:45.556Z,99621.69
2022-10-02T03:34:14.005Z,99620.03
2022-10-02T03:36:42.330Z,99619.19
2022-10-02T03:39:24.672Z,99611.38
2022-10-02T03:41:53.890Z,99609.16
2022-10-02T03:44:21.861Z,99603.84
2022-10-02T03:46:51.260Z,99598.31
2022-10-02T03:49:19.235Z,99594.63
2022-10-02T03:51:47.177Z,99599.94
2022-10-02T03:54:18.302Z,99594.63
2022-10-02T03:56:50.645Z,99576.13
2022-10-02T03:59:34.743Z,99587.63
2022-10-02T04:02:07.512Z,99587.63
2022-10-02T04:04:41.697Z,99583.94
2022-10-02T04:07:14.000Z,99587.25
2022-10-02T04:09:46.033Z,99576.78
2022-10-02T04:12:16.711Z,99583.94
2022-10-02T04:14:47.455Z,99582.28
2022-10-02T04:17:20.714Z,99592.97
2022-10-02T04:19:50.464Z,99591.94
2022-10-02T04:22:33.155Z,99577.56
2022-10-02T04:25:04.126Z,99584.59
2022-10-02T04:27:34.825Z,99582.91
2022-10-02T04:30:04.918Z,99574.91
2022-10-02T04:32:37.491Z,99564.88
2022-10-02T04:35:07.899Z,99565.91
2022-10-02T04:37:47.089Z,99569.19
2022-10-02T04:40:21.456Z,99572.88
2022-10-02T04:42:57.033Z,99571.69
2022-10-02T04:45:42.592Z,99567.00
2022-10-02T04:48:40.759Z,99573.13
2022-10-02T04:51:18.022Z,99576.28
2022-10-02T04:53:54.501Z,99578.75
2022-10-02T04:56:30.327Z,99568.06
2022-10-02T04:59:07.268Z,99562.53
2022-10-02T05:01:46.411Z,99564.38
2022-10-02T05:04:27.469Z,99555.53
2022-10-02T05:07:08.375Z,99543.41
2022-10-02T05:09:40.403Z,99536.41
2022-10-02T05:12:23.171Z,99528.59
2022-10-02T05:15:03.856Z,99527.38
2022-10-02T05:17:43.434Z,99529.88
2022-10-02T05:20:19.087Z,99527.38
2022-10-02T05:23:05.733Z,99527.38
2022-10-02T05:25:43.078Z,99521.25
2022-10-02T05:28:32.935Z,99523.06
2022-10-02T05:31:10.384Z,99517.72
2022-10-02T05:33:59.511Z,99507.25
2022-10-02T05:36:36.524Z,99505.78
2022-10-02T05:39:08.843Z,99497.31
2022-10-02T05:41:46.108Z,99492.44
2022-10-02T05:44:16.575Z,99493.66
2022-10-02T05:46:46.463Z,99477.66
2022-10-02T05:49:17.785Z,99476.81
2022-10-02T05:51:50.689Z,99470.06
2022-10-02T05:54:24.549Z,99463.69
2022-10-02T05:56:56.008Z,99453.84
2022-10-02T05:59:30.584Z,99455.69
2022-10-02T06:01:59.845Z,99457.38
2022-10-02T06:04:30.554Z,99437.66
2022-10-02T06:07:00.390Z,99442.34
2022-10-02T06:09:32.108Z,99437.00
2022-10-02T06:12:02.126Z,99449.56
2022-10-02T06:14:33.612Z,99451.19
2022-10-02T06:17:05.307Z,99451.00
2022-10-02T06:19:36.113Z,99445.66
2022-10-02T06:22:08.303Z,99443.84
2022-10-02T06:24:40.938Z,99445.47
2022-10-02T06:27:12.750Z,99438.31
2022-10-02T06:29:43.663Z,99424.72
2022-10-02T06:32:18.111Z,99423.94
2022-10-02T06:34:48.173Z,99431.94
2022-10-02T06:37:29.078Z,99416.34
2022-10-02T06:40:09.001Z,99404.84
2022-10-02T06:42:44.355Z,99403.84
2022-10-02T06:45:17.350Z,99405.47
2022-10-02T06:47:59.414Z,99407.53
2022-10-02T06:50:33.871Z,99403.84
2022-10-02T06:53:05.851Z,99404.66
2022-10-02T06:55:40.953Z,99414.50
2022-10-02T06:58:23.291Z,99412.88
2022-10-02T07:00:53.387Z,99403.84
2022-10-02T07:03:36.458Z,99406.50
2022-10-02T07:06:14.190Z,99397.84
2022-10-02T07:09:03.261Z,99397.84
2022-10-02T07:11:41.047Z,99380.63
2022-10-02T07:14:18.164Z,99374.47
2022-10-02T07:16:52.183Z,99375.50
2022-10-02T07:19:39.216Z,99370.97
2022-10-02T07:22:39.648Z,99365.63
2022-10-02T07:25:15.473Z,99370.97
2022-10-02T07:27:52.491Z,99368.28
2022-10-02T07:30:20.670Z,99375.50
2022-10-02T07:32:49.464Z,99369.78
2022-10-02T07:35:24.492Z,99366.06
2022-10-02T07:38:00.134Z,99361.53
2022-10-02T07:40:32.032Z,99351.88
2022-10-02T07:43:08.899Z,99345.53
2022-10-02T07:45:38.949Z,99332.41
2022-10-02T07:48:24.770Z,99323.34
2022-10-02T07:51:03.437Z,99318.03
2022-10-02T07:53:39.242Z,99311.84
2022-10-02T07:56:08.251Z,99305.69
2022-10-02T07:58:40.011Z,99304.03
2022-10-02T08:01:12.755Z,99292.34
2022-10-02T08:03:45.169Z,99289.03
2022-10-02T08:06:13.465Z,99281.88
2022-10-02T08:08:45.968Z,99276.53
2022-10-02T08:11:16.930Z,99264.00
2022-10-02T08:13:48.971Z,99260.94
2022-10-02T08:16:20.961Z,99260.53
2022-10-02T08:18:51.427Z,99251.50
2022-10-02T08:21:21.441Z,99247.84
2022-10-02T08:23:54.071Z,99251.94
2022-10-02T08:26:27.661Z,99250.06
2022-10-02T08:29:05.854Z,99247.41
2022-10-02T08:31:34.274Z,99256.06
2022-10-02T08:34:07.880Z,99269.22
2022-10-02T08:36:43.831Z,99279.69
2022-10-02T08:39:24.712Z,99279.50
2022-10-02T08:42:13.579Z,99288.94
2022-10-02T08:45:08.221Z,99295.94
2022-10-02T08:48:09.470Z,99294.09
2022-10-02T08:51:00.144Z,99290.59
2022-10-02T08:53:46.071Z,99285.25
2022-10-02T08:56:28.916Z,99291.63
2022-10-02T08:59:19.270Z,99282.56
2022-10-02T09:02:12.548Z,99280.28
2022-10-02T09:05:01.195Z,99282.78
2022-10-02T09:07:53.721Z,99280.09
2022-10-02T09:10:46.139Z,99270.25
2022-10-02T09:13:31.715Z,99264.53
2022-10-02T09:16:07.519Z,99261.00
2022-10-02T09:18:47.967Z,99253.00
2022-10-02T09:21:16.976Z,99249.53
2022-10-02T09:24:06.209Z,99245.00
2022-10-02T09:26:42.859Z,99235.16
2022-10-02T09:29:34.783Z,99228.97
2022-10-02T09:32:18.893Z,99208.00
2022-10-02T09:34:58.606Z,99195.50
2022-10-02T09:37:44.220Z,99176.78
2022-10-02T09:40:32.750Z,99166.94
2022-10-02T09:43:10.948Z,99160.78
2022-10-02T09:45:57.591Z,99155.44
2022-10-02T09:48:45.530Z,99139.41
2022-10-02T09:51:40.314Z,99145.78
2022-10-02T09:54:26.755Z,99144.75
2022-10-02T09:57:11.827Z,99142.09
2022-10-02T09:59:59.854Z,99133.25
2022-10-02T10:02:58.261Z,99125.44
2022-10-02T10:05:41.200Z,99119.50
2022-10-02T10:08:25.915Z,99109.84
2022-10-02T10:11:02.495Z,99097.09
2022-10-02T10:13:56.146Z,99084.78
2022-10-02T10:16:39.137Z,99089.09
2022-10-02T10:19:16.607Z,99078.59
2022-10-02T10:22:03.217Z,99067.13
2022-10-02T10:24:52.997Z,99053.78
2022-10-02T10:27:35.798Z,99041.44
2022-10-02T10:30:20.117Z,99024.41
2022-10-02T10:33:09.425Z,99012.06
2022-10-02T10:35:52.401Z,99008.38
2022-10-02T10:38:36.865Z,99000.38
2022-10-02T10:41:24.594Z,99005.72
2022-10-02T10:44:04.460Z,98995.84
2022-10-02T10:46:42.258Z,98982.50
2022-10-02T10:49:21.366Z,98969.34
2022-10-02T10:51:53.228Z,98966.66
2022-10-02T10:54:34.236Z,98967.72
2022-10-02T10:57:08.006Z,98957.66
2022-10-02T10:59:58.976Z,98961.97
2022-10-02T11:02:54.796Z,98965.22
2022-10-02T11:05:33.234Z,98947.56
2022-10-02T11:08:11.054Z,98929.91
2022-10-02T11:10:48.555Z,98940.59
2022-10-02T11:13:25.202Z,98952.31
2022-10-02T11:16:14.694Z,98940.59
2022-10-02T11:18:54.044Z,98936.91
2022-10-02T11:21:35.233Z,98943.06
2022-10-02T11:24:11.450Z,98929.09
2022-10-02T11:26:51.403Z,98930.97
2022-10-02T11:29:37.255Z,98934.22
2022-10-02T11:32:15.508Z,98919.25
2022-10-02T11:34:59.741Z,98918.19
2022-10-02T11:37:39.031Z,98919.25
2022-10-02T11:40:22.051Z,98915.53
2022-10-02T11:42:57.411Z,98903.00
2022-10-02T11:45:43.858Z,98900.94
2022-10-02T11:48:24.360Z,98896.44
2022-10-02T11:51:13.595Z,98890.47
2022-10-02T11:53:59.984Z,98888.84
2022-10-02T11:56:37.777Z,98878.16
2022-10-02T11:59:18.424Z,98883.50
2022-10-02T12:01:52.616Z,98879.78
2022-10-02T12:04:35.458Z,98871.19
2022-10-02T12:07:09.283Z,98880.81
2022-10-02T12:09:44.923Z,98870.78
2022-10-02T12:12:27.050Z,98864.41
2022-10-02T12:15:00.943Z,98865.44
2022-10-02T12:17:53.514Z,98852.28
2022-10-02T12:20:43.459Z,98855.75
2022-10-02T12:23:37.849Z,98853.91
2022-10-02T12:26:29.158Z,98854.75
2022-10-02T12:28:59.604Z,98848.16
2022-10-02T12:31:33.474Z,98840.16
2022-10-02T12:34:05.594Z,98832.16
2022-10-02T12:36:44.174Z,98833.78
2022-10-02T12:39:21.980Z,98825.78
2022-10-02T12:42:01.037Z,98830.09
2022-10-02T12:44:39.589Z,98829.28
2022-10-02T12:47:31.674Z,98823.09
2022-10-02T12:50:04.422Z,98820.63
2022-10-02T12:53:04.601Z,98820.63
2022-10-02T12:55:56.593Z,98817.97
2022-10-02T12:58:31.117Z,98816.34
2022-10-02T13:01:18.438Z,98824.34
2022-10-02T13:03:52.166Z,98822.50
2022-10-02T13:06:34.007Z,98802.97
2022-10-02T13:09:17.411Z,98809.56
2022-10-02T13:11:55.665Z,98805.88
2022-10-02T13:14:35.101Z,98800.75
2022-10-02T13:17:15.336Z,98799.94
2022-10-02T13:19:49.623Z,98797.25
2022-10-02T13:22:20.737Z,98786.78
2022-10-02T13:24:57.438Z,98783.13
2022-10-02T13:27:31.779Z,98784.53
2022-10-02T13:30:06.990Z,98780.81
2022-10-02T13:32:45.962Z,98773.84
2022-10-02T13:35:26.079Z,98769.09
2022-10-02T13:38:01.270Z,98777.13
2022-10-02T13:40:34.761Z,98761.72
2022-10-02T13:43:26.258Z,98762.75
2022-10-02T13:46:00.068Z,98757.41
2022-10-02T13:48:33.104Z,98775.06
2022-10-02T13:51:05.281Z,98768.09
2022-10-02T13:53:39.219Z,98772.19
2022-10-02T13:56:15.531Z,98767.69
2022-10-02T13:58:52.057Z,98786.59
2022-10-02T14:01:25.505Z,98784.94
2022-10-02T14:04:07.540Z,98782.69
2022-10-02T14:06:37.585Z,98783.72
2022-10-02T14:09:13.460Z,98784.31
2022-10-02T14:11:56.561Z,98784.31
2022-10-02T14:14:29.653Z,98786.78
2022-10-02T14:17:04.253Z,98773.44
2022-10-02T14:19:38.814Z,98792.75
2022-10-02T14:22:13.622Z,98792.75
2022-10-02T14:25:04.100Z,98793.56
2022-10-02T14:27:56.060Z,98792.34
2022-10-02T14:30:28.809Z,98790.66
2022-10-02T14:33:04.485Z,98791.91
2022-10-02T14:35:35.772Z,98793.38
2022-10-02T14:38:17.759Z,98786.41
2022-10-02T14:40:51.790Z,98789.50
2022-10-02T14:43:34.517Z,98792.56
2022-10-02T14:46:20.434Z,98797.06
2022-10-02T14:49:01.102Z,98798.13
2022-10-02T14:51:38.645Z,98794.63
2022-10-02T14:54:29.625Z,98796.69
2022-10-02T14:57:05.004Z,98798.75
2022-10-02T14:59:51.022Z,98800.56
2022-10-02T15:02:28.311Z,98793.38
2022-10-02T15:05:04.232Z,98803.44
2022-10-02T15:07:35.430Z,98796.06
2022-10-02T15:10:08.662Z,98796.28
2022-10-02T15:12:44.554Z,98798.13
2022-10-02T15:15:14.956Z,98791.94
2022-10-02T15:17:57.447Z,98797.28
2022-10-02T15:20:31.205Z,98799.34
2022-10-02T15:23:00.768Z,98806.31
2022-10-02T15:25:42.693Z,98809.22
2022-10-02T15:28:34.983Z,98803.88
2022-10-02T15:31:06.737Z,98804.66
2022-10-02T15:33:37.578Z,98807.13
2022-10-02T15:36:17.493Z,98818.84
2022-10-02T15:38:51.879Z,98827.66
2022-10-02T15:41:31.651Z,98824.38
2022-10-02T15:44:06.815Z,98831.38
2022-10-02T15:46:39.271Z,98838.34
2022-10-02T15:49:13.662Z,98839.38
2022-10-02T15:52:00.740Z,98843.06
2022-10-02T15:54:44.303Z,98844.50
2022-10-02T15:57:20.584Z,98840.63
2022-10-02T16:00:06.407Z,98842.66
2022-10-02T16:02:58.015Z,98852.75
2022-10-02T16:05:36.140Z,98847.41
2022-10-02T16:08:11.912Z,98846.56
2022-10-02T16:10:44.362Z,98840.00
2022-10-02T16:13:22.300Z,98840.63
2022-10-02T16:15:53.105Z,98841.44
2022-10-02T16:18:33.816Z,98852.31
2022-10-02T16:21:12.793Z,98847.00
2022-10-02T16:24:05.246Z,98845.31
2022-10-02T16:26:40.260Z,98852.75
2022-10-02T16:29:26.656Z,98840.44
2022-10-02T16:32:10.885Z,98845.31
2022-10-02T16:34:44.426Z,98850.03
2022-10-02T16:37:20.071Z,98835.47
2022-10-02T16:39:54.848Z,98840.78
2022-10-02T16:42:34.340Z,98835.47
2022-10-02T16:45:15.147Z,98847.16
2022-10-02T16:47:46.797Z,98849.84
2022-10-02T16:50:18.695Z,98836.69
2022-10-02T16:52:50.216Z,98850.88
2022-10-02T16:55:24.745Z,98852.09
2022-10-02T16:58:01.475Z,98852.53
2022-10-02T17:00:32.734Z,98862.97
2022-10-02T17:03:03.974Z,98863.59
2022-10-02T17:05:36.687Z,98870.56
2022-10-02T17:08:06.918Z,98874.91
2022-10-02T17:10:41.351Z,98876.53
2022-10-02T17:13:19.827Z,98863.19
2022-10-02T17:15:50.318Z,98868.50
2022-10-02T17:18:26.096Z,98873.66
2022-10-02T17:20:56.114Z,98876.13
2022-10-02T17:23:27.949Z,98873.44
2022-10-02T17:26:03.026Z,98874.44
2022-10-02T17:28:37.092Z,98885.13
2022-10-02T17:31:18.268Z,98895.81
2022-10-02T17:33:48.086Z,98901.16
2022-10-02T17:36:20.165Z,98899.50
2022-10-02T17:38:55.553Z,98897.06
2022-10-02T17:41:40.322Z,98897.88
2022-10-02T17:44:16.234Z,98902.19
2022-10-02T17:46:53.198Z,98908.56
2022-10-02T17:49:27.602Z,98899.50
2022-10-02T17:55:06.406Z,98903.22
2022-10-02T17:57:51.752Z,98904.84
2022-10-02T18:00:24.006Z,98897.88
2022-10-02T18:03:30.894Z,98890.06
2022-10-02T18:06:11.033Z,98890.91
2022-10-02T18:08:53.172Z,98889.25
2022-10-02T18:11:43.334Z,98897.06
2022-10-02T18:14:27.290Z,98899.13
2022-10-02T18:17:14.397Z,98908.75
2022-10-02T18:19:56.305Z,98910.59
2022-10-02T18:22:47.268Z,98913.28
2022-10-02T18:25:35.776Z,98910.59
2022-10-02T18:28:23.836Z,98911.63
2022-10-02T18:31:10.521Z,98915.16
2022-10-02T18:34:07.113Z,98927.66
2022-10-02T18:36:56.408Z,98925.00
2022-10-02T18:39:29.979Z,98925.00
2022-10-02T18:42:01.995Z,98914.31
2022-10-02T18:44:45.302Z,98916.97
2022-10-02T18:47:27.861Z,98918.03
2022-10-02T18:50:11.061Z,98912.69
2022-10-02T18:53:05.334Z,98923.34
2022-10-02T18:55:50.185Z,98911.84
2022-10-02T18:58:33.096Z,98929.50
2022-10-02T19:01:42.410Z,98932.16
2022-10-02T19:04:37.528Z,98934.03
2022-10-02T19:07:13.043Z,98939.38
2022-10-02T19:09:42.708Z,98928.69
2022-10-02T19:12:17.261Z,98920.69
2022-10-02T19:14:47.186Z,98928.69
2022-10-02T19:17:24.133Z,98934.03
2022-10-02T19:19:52.820Z,98917.19
2022-10-02T19:22:23.206Z,98912.69
2022-10-02T19:24:54.864Z,98921.69
2022-10-02T19:27:31.197Z,98924.38
2022-10-02T19:30:01.799Z,98920.69
2022-10-02T19:32:34.331Z,98925.19
2022-10-02T19:35:08.472Z,98926.81
2022-10-02T19:37:42.432Z,98926.03
2022-10-02T19:40:17.391Z,98929.69
2022-10-02T19:42:50.334Z,98931.38
2022-10-02T19:45:27.137Z,98933.22
2022-10-02T19:47:59.924Z,98928.91
2022-10-02T19:50:41.170Z,98937.72
2022-10-02T19:53:23.326Z,98937.72
2022-10-02T19:55:57.275Z,98941.22
2022-10-02T19:58:33.327Z,98949.22
2022-10-02T20:01:02.647Z,98951.06
2022-10-02T20:03:33.367Z,98948.38
2022-10-02T20:06:11.081Z,98945.72
2022-10-02T20:08:45.029Z,98953.53
2022-10-02T20:11:21.580Z,98960.72
2022-10-02T20:13:54.561Z,98962.38
2022-10-02T20:16:42.990Z,98963.41
2022-10-02T20:19:18.322Z,98963.41
2022-10-02T20:21:51.517Z,98962.38
2022-10-02T20:24:26.445Z,98966.88
2022-10-02T20:27:01.418Z,98967.72
2022-10-02T20:29:37.922Z,98966.88
2022-10-02T20:32:09.797Z,98968.75
2022-10-02T20:34:44.491Z,98979.22
2022-10-02T20:37:16.855Z,98973.88
2022-10-02T20:39:54.576Z,98976.75
2022-10-02T20:42:27.492Z,98970.38
2022-10-02T20:44:55.747Z,98978.38
2022-10-02T20:47:42.620Z,98982.69
2022-10-02T20:50:40.882Z,98980.03
2022-10-02T20:53:51.479Z,98981.06
2022-10-02T20:56:35.207Z,98980.22
2022-10-02T20:59:26.999Z,98980.03
2022-10-02T21:02:08.182Z,98986.41
2022-10-02T21:05:23.724Z,98984.56
2022-10-02T21:08:21.821Z,98982.88
2022-10-02T21:11:27.112Z,98989.06
2022-10-02T21:14:22.997Z,98989.91
2022-10-02T21:17:23.638Z,98996.03
2022-10-02T21:20:51.320Z,99003.44
2022-10-02T21:23:50.091Z,99003.84
2022-10-02T21:26:40.684Z,99015.38
2022-10-02T21:29:32.939Z,99012.69
2022-10-02T21:32:34.021Z,99018.25
2022-10-02T21:35:13.968Z,99024.38
2022-10-02T21:37:59.256Z,99017.41
2022-10-02T21:41:08.525Z,99026.25
2022-10-02T21:43:57.386Z,99021.91
2022-10-02T21:47:07.371Z,99032.59
2022-10-02T21:50:10.998Z,99031.78
2022-10-02T21:53:15.823Z,99031.78
2022-10-02T21:56:22.685Z,99043.28
2022-10-02T21:59:25.322Z,99034.47
2022-10-02T22:02:28.974Z,99028.28
2022-10-02T22:05:26.089Z,99036.28
2022-10-02T22:08:03.384Z,99046.78
2022-10-02T22:10:36.996Z,99045.94
2022-10-02T22:13:18.331Z,99047.59
2022-10-02T22:15:55.481Z,99050.28
2022-10-02T22:18:33.389Z,99052.09
2022-10-02T22:21:20.378Z,99060.13
2022-10-02T22:24:08.003Z,99053.94
2022-10-02T22:26:59.267Z,99060.13
2022-10-02T22:29:42.898Z,99069.97
2022-10-02T22:32:50.506Z,99069.97
2022-10-02T22:35:31.604Z,99075.31
2022-10-02T22:38:16.592Z,99077.97
2022-10-02T22:40:52.506Z,99084.34
2022-10-02T22:43:28.166Z,99081.47
2022-10-02T22:46:03.949Z,99075.50
2022-10-02T22:48:38.833Z,99091.31
2022-10-02T22:51:16.501Z,99081.69
2022-10-02T22:53:50.867Z,99107.34
2022-10-02T22:56:30.537Z,99102.00
2022-10-02T22:59:10.530Z,99107.34
2022-10-02T23:01:46.226Z,99114.34
2022-10-02T23:04:31.377Z,99112.69
2022-10-02T23:07:05.639Z,99112.69
2022-10-02T23:09:41.656Z,99118.00
2022-10-02T23:12:16.932Z,99119.88
2022-10-02T23:14:59.010Z,99119.06
2022-10-02T23:17:35.954Z,99114.75
2022-10-02T23:20:14.449Z,99119.06
2022-10-02T23:22:51.613Z,99111.03
2022-10-02T23:25:27.316Z,99109.41
2022-10-02T23:28:01.576Z,99117.22
2022-10-02T23:30:34.660Z,99116.38
2022-10-02T23:33:08.969Z,99117.22
2022-10-02T23:35:46.531Z,99120.69
2022-10-02T23:38:20.921Z,99119.88
2022-10-02T23:41:26.775Z,99130.56
2022-10-02T23:44:10.110Z,99137.72
2022-10-02T23:46:55.837Z,99134.22
2022-10-02T23:49:31.398Z,99137.72
2022-10-02T23:52:12.135Z,99143.91
2022-10-02T23:54:53.957Z,99148.41
2022-10-02T23:57:39.103Z,99147.59
